createdAt,value
2022-09-27T00:01:04.880Z,100308.59
2022-09-27T00:03:33.115Z,100308.38
2022-09-27T00:06:02.677Z,100295.22
2022-09-27T00:08:30.243Z,100294.84
2022-09-27T00:11:01.983Z,100300.34
2022-09-27T00:13:29.657Z,100285.09
2022-09-27T00:16:00.988Z,100284.91
2022-09-27T00:18:28.599Z,100284.59
2022-09-27T00:20:56.146Z,100294.91
2022-09-27T00:23:23.837Z,100286.06
2022-09-27T00:26:00.752Z,100287.97
2022-09-27T00:28:28.725Z,100283.75
2022-09-27T00:30:56.408Z,100278.00
2022-09-27T00:33:24.048Z,100268.91
2022-09-27T00:35:51.745Z,100264.84
2022-09-27T00:38:19.494Z,100279.72
2022-09-27T00:40:47.072Z,100269.16
2022-09-27T00:43:22.542Z,100269.06
2022-09-27T00:45:57.961Z,100271.22
2022-09-27T00:48:27.991Z,100273.81
2022-09-27T00:50:57.719Z,100269.16
2022-09-27T00:53:29.926Z,100256.59
2022-09-27T00:56:02.391Z,100267.41
2022-09-27T00:58:57.977Z,100264.72
2022-09-27T01:01:25.592Z,100260.06
2022-09-27T01:04:06.505Z,100266.66
2022-09-27T01:06:34.045Z,100258.16
2022-09-27T01:09:01.698Z,100256.84
2022-09-27T01:11:36.697Z,100257.31
2022-09-27T01:14:16.439Z,100252.41
2022-09-27T01:16:53.481Z,100243.34
2022-09-27T01:19:34.579Z,100242.84
2022-09-27T01:22:18.708Z,100239.63
2022-09-27T01:25:12.228Z,100242.84
2022-09-27T01:27:51.440Z,100240.72
2022-09-27T01:30:34.029Z,100243.25
2022-09-27T01:33:12.724Z,100228.28
2022-09-27T01:36:02.298Z,100234.13
2022-09-27T01:38:41.890Z,100238.19
2022-09-27T01:41:17.038Z,100235.00
2022-09-27T01:44:07.190Z,100236.00
2022-09-27T01:46:42.441Z,100238.00
2022-09-27T01:49:18.572Z,100252.38
2022-09-27T01:52:08.811Z,100258.09
2022-09-27T01:54:48.317Z,100261.53
2022-09-27T01:57:31.206Z,100259.03
2022-09-27T02:00:02.111Z,100256.72
2022-09-27T02:02:46.677Z,100256.50
2022-09-27T02:05:50.206Z,100248.25
2022-09-27T02:08:37.069Z,100243.81
2022-09-27T02:11:14.844Z,100233.66
2022-09-27T02:13:53.453Z,100228.38
2022-09-27T02:16:47.084Z,100221.22
2022-09-27T02:19:24.877Z,100220.97
2022-09-27T02:22:10.288Z,100212.50
2022-09-27T02:24:42.916Z,100204.88
2022-09-27T02:27:14.278Z,100201.88
2022-09-27T02:29:43.952Z,100198.75
2022-09-27T02:32:11.700Z,100194.47
2022-09-27T02:34:39.436Z,100194.22
2022-09-27T02:37:06.973Z,100194.28
2022-09-27T02:39:35.366Z,100189.84
2022-09-27T02:42:06.004Z,100184.00
2022-09-27T02:44:34.308Z,100179.09
2022-09-27T02:47:40.005Z,100175.81
2022-09-27T02:50:26.834Z,100182.75
2022-09-27T02:53:19.143Z,100167.59
2022-09-27T02:56:28.864Z,100168.91
2022-09-27T02:59:14.862Z,100167.22
2022-09-27T03:02:30.671Z,100168.53
2022-09-27T03:05:25.785Z,100166.38
2022-09-27T03:07:53.374Z,100172.66
2022-09-27T03:10:26.222Z,100159.59
2022-09-27T03:12:54.568Z,100140.72
2022-09-27T03:15:22.117Z,100147.16
2022-09-27T03:18:10.708Z,100146.09
2022-09-27T03:20:57.112Z,100152.41
2022-09-27T03:23:27.772Z,100139.13
2022-09-27T03:25:55.916Z,100141.53
2022-09-27T03:28:24.581Z,100132.34
2022-09-27T03:30:52.547Z,100127.28
2022-09-27T03:33:40.805Z,100107.41
2022-09-27T03:36:12.470Z,100103.97
2022-09-27T03:38:40.488Z,100103.59
2022-09-27T03:41:11.783Z,100108.13
2022-09-27T03:43:41.898Z,100112.78
2022-09-27T03:46:09.516Z,100116.59
2022-09-27T03:48:37.445Z,100118.03
2022-09-27T03:51:05.191Z,100128.44
2022-09-27T03:53:32.886Z,100137.06
2022-09-27T03:56:00.893Z,100139.22
2022-09-27T03:58:29.212Z,100136.69
2022-09-27T04:00:56.761Z,100135.50
2022-09-27T04:03:24.929Z,100131.31
2022-09-27T04:06:11.437Z,100127.97
2022-09-27T04:08:42.925Z,100125.00
2022-09-27T04:11:12.182Z,100126.81
2022-09-27T04:13:44.684Z,100126.22
2022-09-27T04:16:13.201Z,100126.09
2022-09-27T04:18:50.930Z,100129.22
2022-09-27T04:21:39.317Z,100127.06
2022-09-27T04:24:08.731Z,100126.00
2022-09-27T04:26:37.308Z,100120.13
2022-09-27T04:29:11.407Z,100119.28
2022-09-27T04:31:44.593Z,100120.25
2022-09-27T04:34:51.106Z,100114.47
2022-09-27T04:37:23.481Z,100113.53
2022-09-27T04:39:54.901Z,100113.53
2022-09-27T04:42:22.412Z,100110.63
2022-09-27T04:44:50.016Z,100109.91
2022-09-27T04:47:18.598Z,100111.44
2022-09-27T04:49:46.121Z,100111.59
2022-09-27T04:52:15.598Z,100112.91
2022-09-27T04:54:43.432Z,100115.44
2022-09-27T04:57:12.971Z,100116.13
2022-09-27T04:59:41.715Z,100116.25
2022-09-27T05:02:09.983Z,100122.97
2022-09-27T05:04:59.976Z,100127.75
2022-09-27T05:07:34.333Z,100121.06
2022-09-27T05:10:07.157Z,100115.03
2022-09-27T05:12:35.799Z,100113.13
2022-09-27T05:15:04.752Z,100112.91
2022-09-27T05:17:52.511Z,100115.19
2022-09-27T05:20:32.299Z,100113.75
2022-09-27T05:23:08.302Z,100105.06
2022-09-27T05:25:37.270Z,100098.56
2022-09-27T05:28:05.643Z,100095.03
2022-09-27T05:30:33.594Z,100099.22
2022-09-27T05:33:12.156Z,100090.59
2022-09-27T05:35:55.398Z,100095.56
2022-09-27T05:38:26.219Z,100089.38
2022-09-27T05:40:57.233Z,100081.84
2022-09-27T05:43:25.646Z,100088.88
2022-09-27T05:45:54.001Z,100086.50
2022-09-27T05:48:23.621Z,100101.28
2022-09-27T05:51:01.646Z,100094.03
2022-09-27T05:53:32.575Z,100091.91
2022-09-27T05:56:04.234Z,100097.88
2022-09-27T05:58:50.386Z,100087.13
2022-09-27T06:01:20.085Z,100096.91
2022-09-27T06:04:06.186Z,100096.41
2022-09-27T06:07:09.320Z,100090.66
2022-09-27T06:09:36.865Z,100094.00
2022-09-27T06:12:04.639Z,100088.25
2022-09-27T06:14:32.393Z,100082.13
2022-09-27T06:17:05.565Z,100081.56
2022-09-27T06:19:35.899Z,100075.66
2022-09-27T06:22:03.589Z,100072.16
2022-09-27T06:24:41.909Z,100067.56
2022-09-27T06:27:18.864Z,100070.81
2022-09-27T06:30:20.477Z,100069.72
2022-09-27T06:32:59.049Z,100079.41
2022-09-27T06:35:38.813Z,100080.84
2022-09-27T06:38:09.045Z,100083.09
2022-09-27T06:40:39.446Z,100084.22
2022-09-27T06:43:20.024Z,100084.94
2022-09-27T06:46:13.825Z,100074.66
2022-09-27T06:49:20.121Z,100064.50
2022-09-27T06:51:49.665Z,100065.59
2022-09-27T06:54:17.209Z,100065.59
2022-09-27T06:56:47.274Z,100072.13
2022-09-27T06:59:33.751Z,100060.69
2022-09-27T07:02:19.785Z,100066.13
2022-09-27T07:04:59.169Z,100071.56
2022-09-27T07:07:40.218Z,100071.97
2022-09-27T07:10:10.028Z,100072.13
2022-09-27T07:12:38.537Z,100069.47
2022-09-27T07:15:06.853Z,100065.94
2022-09-27T07:17:37.518Z,100073.66
2022-09-27T07:20:05.810Z,100068.34
2022-09-27T07:22:33.457Z,100076.00
2022-09-27T07:25:04.138Z,100080.69
2022-09-27T07:27:33.217Z,100070.56
2022-09-27T07:30:01.550Z,100052.03
2022-09-27T07:32:29.257Z,100045.56
2022-09-27T07:34:56.801Z,100046.75
2022-09-27T07:37:24.460Z,100038.28
2022-09-27T07:39:52.622Z,100046.63
2022-09-27T07:42:20.758Z,100040.66
2022-09-27T07:44:52.012Z,100048.34
2022-09-27T07:47:39.635Z,100053.88
2022-09-27T07:50:17.265Z,100040.06
2022-09-27T07:52:55.613Z,100033.47
2022-09-27T07:55:35.047Z,100039.44
2022-09-27T07:58:30.648Z,100038.84
2022-09-27T08:01:02.681Z,100048.72
2022-09-27T08:03:31.334Z,100028.94
2022-09-27T08:06:02.311Z,100021.56
2022-09-27T08:08:30.976Z,100032.63
2022-09-27T08:11:01.177Z,100028.00
2022-09-27T08:13:31.494Z,100024.66
2022-09-27T08:16:02.184Z,100022.34
2022-09-27T08:18:34.114Z,100014.34
2022-09-27T08:21:21.974Z,100013.81
2022-09-27T08:24:11.239Z,100006.28
2022-09-27T08:27:11.499Z,99999.84
2022-09-27T08:29:53.893Z,99986.47
2022-09-27T08:32:23.471Z,99986.38
2022-09-27T08:34:52.320Z,99978.75
2022-09-27T08:37:22.051Z,99988.16
2022-09-27T08:39:50.920Z,99979.19
2022-09-27T08:42:25.337Z,99988.72
2022-09-27T08:45:04.503Z,99986.75
2022-09-27T08:47:39.541Z,99984.16
2022-09-27T08:50:29.202Z,99984.28
2022-09-27T08:53:19.559Z,99980.94
2022-09-27T08:55:48.400Z,99985.06
2022-09-27T08:58:26.539Z,99983.44
2022-09-27T09:00:57.752Z,99973.34
2022-09-27T09:03:30.291Z,99969.25
2022-09-27T09:06:16.661Z,99974.91
2022-09-27T09:09:08.514Z,99975.59
2022-09-27T09:12:05.828Z,99976.31
2022-09-27T09:15:00.786Z,99978.53
2022-09-27T09:18:03.088Z,99967.91
2022-09-27T09:21:21.192Z,99969.84
2022-09-27T09:24:08.256Z,99966.53
2022-09-27T09:26:45.860Z,99963.56
2022-09-27T09:29:43.933Z,99961.13
2022-09-27T09:32:23.413Z,99958.03
2022-09-27T09:35:06.613Z,99960.06
2022-09-27T09:37:41.212Z,99965.53
2022-09-27T09:40:20.404Z,99962.50
2022-09-27T09:43:14.519Z,99963.50
2022-09-27T09:46:46.757Z,99955.59
2022-09-27T09:49:18.592Z,99950.38
2022-09-27T09:51:51.322Z,99953.97
2022-09-27T09:54:42.640Z,99960.19
2022-09-27T09:57:25.936Z,99951.75
2022-09-27T09:59:58.569Z,99951.41
2022-09-27T10:02:26.076Z,99950.47
2022-09-27T10:04:58.353Z,99949.41
2022-09-27T10:07:26.276Z,99940.94
2022-09-27T10:09:57.836Z,99938.69
2022-09-27T10:12:52.548Z,99947.19
2022-09-27T10:15:24.130Z,99950.84
2022-09-27T10:17:54.475Z,99940.81
2022-09-27T10:20:45.859Z,99943.22
2022-09-27T10:23:21.283Z,99933.19
2022-09-27T10:26:09.236Z,99932.66
2022-09-27T10:28:47.620Z,99932.56
2022-09-27T10:31:19.917Z,99931.25
2022-09-27T10:34:05.333Z,99926.94
2022-09-27T10:36:40.029Z,99934.50
2022-09-27T10:39:21.359Z,99941.25
2022-09-27T10:41:48.951Z,99949.78
2022-09-27T10:44:27.824Z,99945.31
2022-09-27T10:47:23.054Z,99942.75
2022-09-27T10:50:22.795Z,99950.47
2022-09-27T10:53:12.357Z,99933.88
2022-09-27T10:55:41.269Z,99939.56
2022-09-27T10:58:20.253Z,99932.88
2022-09-27T11:00:56.619Z,99925.25
2022-09-27T11:03:25.725Z,99918.53
2022-09-27T11:05:54.915Z,99919.06
2022-09-27T11:08:30.626Z,99917.50
2022-09-27T11:11:07.190Z,99914.47
2022-09-27T11:13:37.999Z,99904.03
2022-09-27T11:16:22.592Z,99910.41
2022-09-27T11:19:18.519Z,99903.94
2022-09-27T11:22:08.609Z,99904.25
2022-09-27T11:24:58.347Z,99894.88
2022-09-27T11:27:34.627Z,99896.03
2022-09-27T11:30:13.086Z,99891.63
2022-09-27T11:33:55.089Z,99894.69
2022-09-27T11:37:05.291Z,99897.22
2022-09-27T11:39:52.967Z,99897.09
2022-09-27T11:43:05.807Z,99894.41
2022-09-27T11:46:14.403Z,99891.69
2022-09-27T11:48:41.010Z,99887.25
2022-09-27T11:51:27.897Z,99889.72
2022-09-27T11:54:13.965Z,99891.03
2022-09-27T11:56:58.137Z,99884.22
2022-09-27T11:59:47.816Z,99885.63
2022-09-27T12:02:39.858Z,99883.66
2022-09-27T12:05:28.891Z,99873.69
2022-09-27T12:08:27.431Z,99885.50
2022-09-27T12:11:01.952Z,99880.00
2022-09-27T12:13:37.074Z,99873.44
2022-09-27T12:16:04.998Z,99876.94
2022-09-27T12:18:39.175Z,99875.09
2022-09-27T12:21:16.889Z,99891.41
2022-09-27T12:23:44.396Z,99876.78
2022-09-27T12:26:35.927Z,99868.84
2022-09-27T12:29:45.325Z,99861.91
2022-09-27T12:32:20.998Z,99850.75
2022-09-27T12:34:56.828Z,99849.22
2022-09-27T12:37:36.277Z,99853.91
2022-09-27T12:40:16.687Z,99844.25
2022-09-27T12:42:49.354Z,99851.19
2022-09-27T12:45:58.133Z,99850.91
2022-09-27T12:48:41.999Z,99851.75
2022-09-27T12:51:11.913Z,99849.25
2022-09-27T12:54:10.911Z,99850.66
2022-09-27T12:57:32.538Z,99842.28
2022-09-27T13:00:05.794Z,99841.44
2022-09-27T13:03:14.593Z,99833.09
2022-09-27T13:06:22.229Z,99832.13
2022-09-27T13:09:16.214Z,99831.06
2022-09-27T13:12:01.600Z,99821.66
2022-09-27T13:14:35.610Z,99814.78
2022-09-27T13:17:03.246Z,99816.34
2022-09-27T13:19:42.628Z,99811.13
2022-09-27T13:22:26.964Z,99809.16
2022-09-27T13:25:54.319Z,99811.59
2022-09-27T13:29:03.311Z,99800.06
2022-09-27T13:32:19.172Z,99799.66
2022-09-27T13:35:33.817Z,99778.94
2022-09-27T13:38:22.756Z,99785.19
2022-09-27T13:40:51.164Z,99781.81
2022-09-27T13:44:05.407Z,99779.47
2022-09-27T13:47:13.356Z,99777.28
2022-09-27T13:49:42.212Z,99782.19
2022-09-27T13:52:15.428Z,99775.00
2022-09-27T13:54:56.227Z,99782.69
2022-09-27T13:57:46.008Z,99780.13
2022-09-27T14:00:18.831Z,99771.19
2022-09-27T14:03:05.265Z,99769.44
2022-09-27T14:05:41.465Z,99767.63
2022-09-27T14:08:25.961Z,99768.22
2022-09-27T14:10:53.729Z,99768.47
2022-09-27T14:13:21.888Z,99762.94
2022-09-27T14:16:00.032Z,99762.31
2022-09-27T14:18:27.745Z,99762.56
2022-09-27T14:20:56.583Z,99773.25
2022-09-27T14:23:50.937Z,99767.41
2022-09-27T14:26:28.025Z,99772.91
2022-09-27T14:28:55.845Z,99772.53
2022-09-27T14:31:31.390Z,99765.59
2022-09-27T14:34:06.563Z,99758.25
2022-09-27T14:36:52.781Z,99765.91
2022-09-27T14:39:23.448Z,99751.25
2022-09-27T14:41:52.940Z,99749.63
2022-09-27T14:44:23.621Z,99757.91
2022-09-27T14:47:11.424Z,99746.53
2022-09-27T14:49:47.400Z,99732.34
2022-09-27T14:52:21.948Z,99730.09
2022-09-27T14:54:57.292Z,99717.81
2022-09-27T14:57:26.258Z,99723.25
2022-09-27T14:59:54.021Z,99720.50
2022-09-27T15:02:22.576Z,99712.56
2022-09-27T15:04:51.437Z,99707.91
2022-09-27T15:07:19.845Z,99709.25
2022-09-27T15:09:48.033Z,99706.63
2022-09-27T15:12:23.015Z,99707.13
2022-09-27T15:14:54.114Z,99706.47
2022-09-27T15:17:22.111Z,99706.97
2022-09-27T15:19:57.641Z,99694.31
2022-09-27T15:22:34.596Z,99690.97
2022-09-27T15:25:19.355Z,99689.56
2022-09-27T15:27:49.200Z,99694.22
2022-09-27T15:30:21.663Z,99690.03
2022-09-27T15:32:51.737Z,99696.88
2022-09-27T15:35:23.399Z,99689.69
2022-09-27T15:37:51.251Z,99695.94
2022-09-27T15:40:19.787Z,99701.09
2022-09-27T15:43:01.528Z,99693.56
2022-09-27T15:45:31.130Z,99686.28
2022-09-27T15:48:06.649Z,99668.91
2022-09-27T15:50:34.420Z,99668.84
2022-09-27T15:53:04.100Z,99670.16
2022-09-27T15:55:31.718Z,99670.91
2022-09-27T15:58:08.344Z,99665.63
2022-09-27T16:00:36.402Z,99659.56
2022-09-27T16:03:04.212Z,99665.06
2022-09-27T16:05:33.364Z,99668.91
2022-09-27T16:08:01.304Z,99668.06
2022-09-27T16:10:37.373Z,99662.56
2022-09-27T16:13:05.034Z,99663.41
2022-09-27T16:15:32.637Z,99667.22
2022-09-27T16:18:00.303Z,99665.56
2022-09-27T16:20:28.137Z,99661.72
2022-09-27T16:22:56.087Z,99664.47
2022-09-27T16:25:23.820Z,99661.38
2022-09-27T16:27:52.576Z,99653.72
2022-09-27T16:30:20.879Z,99663.31
2022-09-27T16:32:48.981Z,99662.47
2022-09-27T16:35:17.552Z,99657.28
2022-09-27T16:37:45.444Z,99659.25
2022-09-27T16:40:13.604Z,99651.78
2022-09-27T16:42:41.430Z,99652.72
2022-09-27T16:45:12.000Z,99648.94
2022-09-27T16:47:42.327Z,99655.06
2022-09-27T16:50:29.484Z,99652.91
2022-09-27T16:52:57.221Z,99651.78
2022-09-27T16:55:26.268Z,99652.16
2022-09-27T16:57:54.132Z,99648.06
2022-09-27T17:00:21.800Z,99651.66
2022-09-27T17:02:49.828Z,99651.06
2022-09-27T17:05:18.422Z,99651.56
2022-09-27T17:07:46.299Z,99650.72
2022-09-27T17:10:15.311Z,99652.06
2022-09-27T17:12:44.541Z,99653.22
2022-09-27T17:15:12.228Z,99644.16
2022-09-27T17:17:39.946Z,99650.16
2022-09-27T17:20:07.627Z,99651.38
2022-09-27T17:22:35.380Z,99655.56
2022-09-27T17:25:06.819Z,99656.53
2022-09-27T17:27:36.496Z,99656.63
2022-09-27T17:30:06.978Z,99660.47
2022-09-27T17:32:34.991Z,99652.09
2022-09-27T17:35:02.844Z,99657.97
2022-09-27T17:37:30.559Z,99656.53
2022-09-27T17:39:58.159Z,99654.84
2022-09-27T17:42:25.924Z,99653.44
2022-09-27T17:44:53.628Z,99654.50
2022-09-27T17:47:39.596Z,99656.66
2022-09-27T17:50:28.669Z,99644.56
2022-09-27T17:52:57.424Z,99647.75
2022-09-27T17:55:25.228Z,99650.13
2022-09-27T17:57:52.976Z,99647.88
2022-09-27T18:00:20.919Z,99657.81
2022-09-27T18:02:48.712Z,99654.22
2022-09-27T18:05:18.473Z,99635.31
2022-09-27T18:07:47.825Z,99645.13
2022-09-27T18:10:17.816Z,99645.38
2022-09-27T18:12:45.525Z,99644.53
2022-09-27T18:15:13.310Z,99640.13
2022-09-27T18:17:41.034Z,99640.72
2022-09-27T18:20:08.974Z,99638.47
2022-09-27T18:22:36.701Z,99635.94
2022-09-27T18:25:05.564Z,99633.94
2022-09-27T18:27:34.747Z,99626.78
2022-09-27T18:30:03.571Z,99624.75
2022-09-27T18:32:31.371Z,99619.91
2022-09-27T18:34:58.830Z,99619.06
2022-09-27T18:37:27.203Z,99601.50
2022-09-27T18:39:55.769Z,99608.56
2022-09-27T18:42:23.392Z,99614.78
2022-09-27T18:44:51.441Z,99611.56
2022-09-27T18:47:19.307Z,99612.03
2022-09-27T18:49:47.049Z,99613.13
2022-09-27T18:52:15.182Z,99594.09
2022-09-27T18:54:43.767Z,99588.81
2022-09-27T18:57:11.358Z,99579.50
2022-09-27T18:59:39.456Z,99573.41
2022-09-27T19:02:07.154Z,99583.31
2022-09-27T19:04:36.760Z,99578.25
2022-09-27T19:07:04.506Z,99568.25
2022-09-27T19:09:32.220Z,99561.59
2022-09-27T19:12:02.444Z,99574.50
2022-09-27T19:14:30.173Z,99570.91
2022-09-27T19:16:57.689Z,99569.34
2022-09-27T19:19:25.895Z,99579.50
2022-09-27T19:21:53.456Z,99575.91
2022-09-27T19:24:21.077Z,99574.59
2022-09-27T19:26:53.743Z,99565.19
2022-09-27T19:29:21.393Z,99563.59
2022-09-27T19:31:48.949Z,99555.59
2022-09-27T19:34:16.668Z,99556.94
2022-09-27T19:36:44.287Z,99556.00
2022-09-27T19:39:12.762Z,99543.59
2022-09-27T19:41:40.466Z,99547.28
2022-09-27T19:44:08.196Z,99537.69
2022-09-27T19:46:36.069Z,99522.69
2022-09-27T19:49:06.015Z,99536.31
2022-09-27T19:51:34.185Z,99536.81
2022-09-27T19:54:01.829Z,99533.97
2022-09-27T19:56:29.833Z,99530.81
2022-09-27T19:58:58.526Z,99528.06
2022-09-27T20:01:26.329Z,99517.63
2022-09-27T20:03:55.874Z,99517.13
2022-09-27T20:06:23.828Z,99528.16
2022-09-27T20:08:51.433Z,99525.78
2022-09-27T20:11:20.440Z,99517.31
2022-09-27T20:13:49.361Z,99514.06
2022-09-27T20:16:20.429Z,99508.06
2022-09-27T20:18:53.520Z,99502.63
2022-09-27T20:21:22.045Z,99511.16
2022-09-27T20:23:50.542Z,99507.72
2022-09-27T20:26:19.035Z,99507.63
2022-09-27T20:28:50.562Z,99513.47
2022-09-27T20:31:21.483Z,99510.72
2022-09-27T20:33:51.877Z,99508.56
2022-09-27T20:36:23.500Z,99501.38
2022-09-27T20:38:52.516Z,99506.72
2022-09-27T20:41:22.872Z,99511.53
2022-09-27T20:43:56.122Z,99512.47
2022-09-27T20:46:24.538Z,99512.22
2022-09-27T20:48:53.784Z,99516.69
2022-09-27T20:51:21.562Z,99513.44
2022-09-27T20:53:51.366Z,99506.88
2022-09-27T20:56:40.724Z,99507.19
2022-09-27T20:59:15.932Z,99503.63
2022-09-27T21:01:48.182Z,99496.78
2022-09-27T21:04:17.252Z,99500.31
2022-09-27T21:06:44.975Z,99492.25
2022-09-27T21:09:19.185Z,99492.59
2022-09-27T21:11:47.824Z,99506.38
2022-09-27T21:14:15.837Z,99505.03
2022-09-27T21:16:44.083Z,99510.25
2022-09-27T21:19:11.783Z,99502.28
2022-09-27T21:21:39.899Z,99510.84
2022-09-27T21:24:07.469Z,99511.09
2022-09-27T21:26:36.204Z,99500.94
2022-09-27T21:29:09.487Z,99487.97
2022-09-27T21:31:38.172Z,99482.22
2022-09-27T21:34:06.972Z,99485.00
2022-09-27T21:36:36.438Z,99485.22
2022-09-27T21:39:05.099Z,99479.97
2022-09-27T21:41:34.964Z,99474.47
2022-09-27T21:44:04.342Z,99472.00
2022-09-27T21:46:31.971Z,99472.50
2022-09-27T21:49:00.246Z,99463.31
2022-09-27T21:51:37.668Z,99468.25
2022-09-27T21:54:07.076Z,99471.84
2022-09-27T21:56:36.815Z,99471.00
2022-09-27T21:59:07.856Z,99476.25
2022-09-27T22:01:36.199Z,99477.28
2022-09-27T22:04:04.776Z,99476.44
2022-09-27T22:06:34.324Z,99476.44
2022-09-27T22:09:02.021Z,99487.47
2022-09-27T22:11:37.621Z,99483.03
2022-09-27T22:14:07.033Z,99478.28
2022-09-27T22:16:36.209Z,99475.19
2022-09-27T22:19:04.460Z,99475.19
2022-09-27T22:21:34.041Z,99467.97
2022-09-27T22:24:07.512Z,99453.88
2022-09-27T22:26:37.491Z,99454.63
2022-09-27T22:29:05.565Z,99455.03
2022-09-27T22:31:33.343Z,99459.78
2022-09-27T22:34:03.616Z,99455.78
2022-09-27T22:36:31.686Z,99454.97
2022-09-27T22:39:00.492Z,99454.88
2022-09-27T22:41:30.578Z,99454.56
2022-09-27T22:43:58.968Z,99466.63
2022-09-27T22:46:26.699Z,99458.38
2022-09-27T22:48:56.331Z,99469.47
2022-09-27T22:51:23.985Z,99468.22
2022-09-27T22:53:51.850Z,99465.53
2022-09-27T22:56:20.222Z,99466.47
2022-09-27T22:58:48.253Z,99463.03
2022-09-27T23:01:19.441Z,99465.38
2022-09-27T23:03:47.774Z,99453.88
2022-09-27T23:06:16.456Z,99454.25
2022-09-27T23:08:44.386Z,99448.63
2022-09-27T23:11:13.056Z,99441.53
2022-09-27T23:13:41.729Z,99436.03
2022-09-27T23:16:13.861Z,99442.09
2022-09-27T23:18:42.282Z,99437.78
2022-09-27T23:21:11.746Z,99444.69
2022-09-27T23:23:41.526Z,99447.19
2022-09-27T23:26:10.987Z,99447.53
2022-09-27T23:28:38.724Z,99440.06
2022-09-27T23:31:13.901Z,99440.75
2022-09-27T23:33:43.599Z,99433.31
2022-09-27T23:36:15.453Z,99427.56
2022-09-27T23:38:45.715Z,99422.56
2022-09-27T23:41:13.974Z,99434.66
2022-09-27T23:43:42.067Z,99437.91
2022-09-27T23:46:09.831Z,99443.94
2022-09-27T23:48:37.807Z,99426.25
2022-09-27T23:51:06.776Z,99437.59
2022-09-27T23:53:34.618Z,99439.56
2022-09-27T23:56:23.276Z,99427.81
2022-09-27T23:58:50.804Z,99431.22
